createdAt,value
2022-07-26T00:01:01.634Z,20.23
2022-07-26T00:03:28.682Z,20.15
2022-07-26T00:05:55.709Z,20.13
2022-07-26T00:08:22.783Z,20.01
2022-07-26T00:10:51.135Z,19.90
2022-07-26T00:13:21.258Z,20.03
2022-07-26T00:15:52.627Z,19.91
2022-07-26T00:18:20.090Z,19.78
2022-07-26T00:20:48.389Z,19.97
2022-07-26T00:23:19.906Z,20.09
2022-07-26T00:25:47.020Z,19.74
2022-07-26T00:28:14.875Z,20.08
2022-07-26T00:30:42.287Z,19.89
2022-07-26T00:33:09.298Z,20.15
2022-07-26T00:35:36.448Z,19.90
2022-07-26T00:38:03.620Z,19.96
2022-07-26T00:40:31.155Z,20.06
2022-07-26T00:42:58.145Z,20.00
2022-07-26T00:45:25.359Z,20.05
2022-07-26T00:47:52.703Z,20.05
2022-07-26T00:50:21.087Z,19.76
2022-07-26T00:52:49.963Z,19.87
2022-07-26T00:55:18.162Z,20.08
2022-07-26T00:57:46.168Z,20.00
2022-07-26T01:00:18.226Z,19.91
2022-07-26T01:02:46.307Z,20.10
2022-07-26T01:05:14.015Z,20.09
2022-07-26T01:07:41.697Z,19.77
2022-07-26T01:10:12.916Z,19.96
2022-07-26T01:12:44.770Z,19.95
2022-07-26T01:15:14.862Z,19.95
2022-07-26T01:17:43.237Z,19.98
2022-07-26T01:20:13.120Z,19.60
2022-07-26T01:22:40.340Z,19.87
2022-07-26T01:25:08.825Z,19.95
2022-07-26T01:27:39.741Z,19.87
2022-07-26T01:30:12.086Z,19.95
2022-07-26T01:32:39.469Z,19.86
2022-07-26T01:35:07.877Z,19.81
2022-07-26T01:37:34.889Z,19.81
2022-07-26T01:40:02.226Z,19.83
2022-07-26T01:42:29.345Z,19.61
2022-07-26T01:44:56.546Z,19.87
2022-07-26T01:47:23.571Z,19.92
2022-07-26T01:49:51.200Z,19.94
2022-07-26T01:52:19.012Z,19.95
2022-07-26T01:54:49.131Z,19.97
2022-07-26T01:57:16.577Z,19.97
2022-07-26T01:59:43.610Z,19.93
2022-07-26T02:02:10.772Z,19.79
2022-07-26T02:04:57.390Z,19.79
2022-07-26T02:07:28.714Z,19.84
2022-07-26T02:09:56.130Z,19.93
2022-07-26T02:12:25.115Z,19.67
2022-07-26T02:14:52.227Z,19.89
2022-07-26T02:17:19.305Z,19.92
2022-07-26T02:19:46.982Z,19.91
2022-07-26T02:22:13.998Z,19.58
2022-07-26T02:24:41.099Z,19.83
2022-07-26T02:27:08.161Z,19.92
2022-07-26T02:29:36.660Z,19.91
2022-07-26T02:32:04.168Z,19.77
2022-07-26T02:34:33.873Z,19.88
2022-07-26T02:37:01.695Z,19.78
2022-07-26T02:39:29.020Z,19.54
2022-07-26T02:42:01.568Z,19.76
2022-07-26T02:44:29.305Z,19.54
2022-07-26T02:46:56.429Z,19.80
2022-07-26T02:49:23.456Z,19.78
2022-07-26T02:51:51.068Z,19.60
2022-07-26T02:54:18.445Z,19.69
2022-07-26T02:56:48.013Z,19.44
2022-07-26T02:59:16.056Z,19.60
2022-07-26T03:01:43.359Z,19.71
2022-07-26T03:04:10.870Z,19.53
2022-07-26T03:06:38.479Z,19.69
2022-07-26T03:09:05.611Z,19.68
2022-07-26T03:11:32.672Z,19.43
2022-07-26T03:13:59.905Z,19.66
2022-07-26T03:16:29.602Z,19.23
2022-07-26T03:18:57.523Z,19.61
2022-07-26T03:21:24.682Z,19.50
2022-07-26T03:23:51.906Z,19.58
2022-07-26T03:26:18.939Z,18.99
2022-07-26T03:28:46.498Z,19.32
2022-07-26T03:31:14.478Z,19.29
2022-07-26T03:33:41.638Z,19.21
2022-07-26T03:36:11.644Z,19.37
2022-07-26T03:38:43.209Z,19.19
2022-07-26T03:41:13.403Z,19.41
2022-07-26T03:43:41.498Z,19.37
2022-07-26T03:46:08.982Z,19.21
2022-07-26T03:48:36.163Z,19.36
2022-07-26T03:51:03.283Z,19.30
2022-07-26T03:53:30.711Z,19.31
2022-07-26T03:56:16.458Z,19.33
2022-07-26T03:58:43.941Z,19.23
2022-07-26T04:01:11.024Z,19.01
2022-07-26T04:03:38.093Z,19.20
2022-07-26T04:06:05.451Z,19.04
2022-07-26T04:08:32.957Z,19.17
2022-07-26T04:11:00.078Z,19.09
2022-07-26T04:13:27.717Z,19.27
2022-07-26T04:15:54.807Z,19.09
2022-07-26T04:18:24.745Z,19.11
2022-07-26T04:20:52.190Z,19.11
2022-07-26T04:23:19.681Z,19.30
2022-07-26T04:25:46.984Z,19.02
2022-07-26T04:28:14.323Z,19.27
2022-07-26T04:30:42.096Z,19.26
2022-07-26T04:33:09.706Z,19.12
2022-07-26T04:35:37.319Z,19.09
2022-07-26T04:38:04.829Z,18.94
2022-07-26T04:40:34.984Z,19.11
2022-07-26T04:43:08.570Z,19.26
2022-07-26T04:45:37.343Z,18.96
2022-07-26T04:48:04.863Z,19.10
2022-07-26T04:50:32.083Z,19.21
2022-07-26T04:52:59.099Z,19.12
2022-07-26T04:55:26.177Z,19.30
2022-07-26T04:57:53.423Z,19.13
2022-07-26T05:00:24.213Z,19.13
2022-07-26T05:02:57.718Z,19.09
2022-07-26T05:05:26.641Z,19.24
2022-07-26T05:07:57.053Z,19.20
2022-07-26T05:10:36.475Z,19.16
2022-07-26T05:13:05.386Z,19.26
2022-07-26T05:15:35.447Z,19.09
2022-07-26T05:18:10.560Z,19.02
2022-07-26T05:20:38.680Z,18.35
2022-07-26T05:23:05.809Z,19.11
2022-07-26T05:25:33.059Z,19.02
2022-07-26T05:28:00.107Z,19.15
2022-07-26T05:30:27.492Z,19.02
2022-07-26T05:32:54.807Z,19.04
2022-07-26T05:35:21.970Z,19.01
2022-07-26T05:37:51.204Z,18.70
2022-07-26T05:40:18.572Z,18.80
2022-07-26T05:42:46.231Z,18.47
2022-07-26T05:45:13.448Z,18.15
2022-07-26T05:47:40.940Z,18.75
2022-07-26T05:50:08.625Z,18.59
2022-07-26T05:52:37.963Z,18.46
2022-07-26T05:55:05.616Z,18.34
2022-07-26T05:57:32.613Z,18.40
2022-07-26T05:59:59.611Z,18.31
2022-07-26T06:02:26.677Z,18.43
2022-07-26T06:04:53.785Z,18.32
2022-07-26T06:07:21.268Z,18.39
2022-07-26T06:09:48.874Z,18.49
2022-07-26T06:12:19.167Z,18.31
2022-07-26T06:14:46.346Z,18.44
2022-07-26T06:17:13.854Z,18.45
2022-07-26T06:19:45.574Z,18.53
2022-07-26T06:22:16.922Z,18.52
2022-07-26T06:24:43.955Z,18.13
2022-07-26T06:27:10.882Z,18.38
2022-07-26T06:29:37.878Z,18.24
2022-07-26T06:32:04.921Z,18.31
2022-07-26T06:34:31.942Z,18.23
2022-07-26T06:36:59.320Z,18.39
2022-07-26T06:39:26.315Z,18.42
2022-07-26T06:41:53.348Z,18.40
2022-07-26T06:44:21.426Z,18.50
2022-07-26T06:46:48.367Z,18.40
2022-07-26T06:49:18.479Z,18.11
2022-07-26T06:51:49.083Z,18.13
2022-07-26T06:54:16.505Z,18.30
2022-07-26T06:56:43.427Z,17.87
2022-07-26T06:59:10.675Z,17.92
2022-07-26T07:01:58.399Z,17.97
2022-07-26T07:04:24.876Z,17.81
2022-07-26T07:06:51.956Z,17.90
2022-07-26T07:09:19.814Z,17.81
2022-07-26T07:11:57.404Z,17.99
2022-07-26T07:14:27.337Z,17.52
2022-07-26T07:16:54.523Z,18.06
2022-07-26T07:19:21.538Z,17.96
2022-07-26T07:21:48.478Z,18.15
2022-07-26T07:24:18.368Z,18.11
2022-07-26T07:26:48.071Z,18.23
2022-07-26T07:29:17.494Z,18.11
2022-07-26T07:31:48.794Z,18.27
2022-07-26T07:34:19.659Z,18.21
2022-07-26T07:36:47.133Z,18.33
2022-07-26T07:39:17.536Z,18.38
2022-07-26T07:41:46.022Z,18.57
2022-07-26T07:44:13.490Z,18.34
2022-07-26T07:46:40.860Z,18.50
2022-07-26T07:49:08.343Z,18.65
2022-07-26T07:51:36.262Z,18.57
2022-07-26T07:54:05.917Z,18.30
2022-07-26T07:56:33.720Z,18.37
2022-07-26T07:59:00.678Z,18.57
2022-07-26T08:01:40.660Z,18.55
2022-07-26T08:04:09.333Z,18.57
2022-07-26T08:06:36.798Z,18.45
2022-07-26T08:09:06.342Z,18.69
2022-07-26T08:11:34.271Z,18.45
2022-07-26T08:14:01.879Z,18.68
2022-07-26T08:16:28.968Z,18.67
2022-07-26T08:18:57.739Z,18.68
2022-07-26T08:21:36.337Z,18.62
2022-07-26T08:24:03.348Z,18.81
2022-07-26T08:26:30.262Z,18.55
2022-07-26T08:29:09.821Z,18.64
2022-07-26T08:31:36.973Z,18.39
2022-07-26T08:34:04.075Z,18.50
2022-07-26T08:36:32.732Z,18.26
2022-07-26T08:39:00.887Z,18.37
2022-07-26T08:41:28.194Z,18.35
2022-07-26T08:43:55.203Z,18.37
2022-07-26T08:46:26.371Z,18.22
2022-07-26T08:48:57.741Z,18.29
2022-07-26T08:51:25.768Z,18.45
2022-07-26T08:53:59.295Z,18.38
2022-07-26T08:56:30.970Z,18.61
2022-07-26T08:58:58.087Z,18.63
2022-07-26T09:01:25.159Z,18.45
2022-07-26T09:03:52.362Z,18.64
2022-07-26T09:06:21.982Z,18.96
2022-07-26T09:08:53.232Z,19.03
2022-07-26T09:11:27.620Z,19.25
2022-07-26T09:14:02.332Z,19.38
2022-07-26T09:16:30.385Z,19.08
2022-07-26T09:19:22.860Z,19.59
2022-07-26T09:21:51.130Z,19.58
2022-07-26T09:24:35.878Z,19.54
2022-07-26T09:27:05.386Z,19.53
2022-07-26T09:29:49.044Z,19.20
2022-07-26T09:32:19.050Z,19.85
2022-07-26T09:34:53.123Z,19.97
2022-07-26T09:37:35.391Z,20.04
2022-07-26T09:40:07.849Z,19.92
2022-07-26T09:42:35.326Z,20.08
2022-07-26T09:45:02.652Z,20.08
2022-07-26T09:47:39.341Z,20.10
2022-07-26T09:50:21.463Z,19.92
2022-07-26T09:53:07.542Z,20.08
2022-07-26T09:55:46.396Z,19.92
2022-07-26T09:58:16.256Z,19.62
2022-07-26T10:00:43.674Z,19.35
2022-07-26T10:03:12.710Z,19.07
2022-07-26T10:05:40.137Z,19.07
2022-07-26T10:08:07.955Z,18.98
2022-07-26T10:10:47.134Z,18.86
2022-07-26T10:13:14.109Z,18.81
2022-07-26T10:15:46.895Z,18.60
2022-07-26T10:18:39.265Z,18.82
2022-07-26T10:21:16.789Z,18.83
2022-07-26T10:23:47.105Z,18.37
2022-07-26T10:26:34.119Z,18.89
2022-07-26T10:29:16.723Z,18.93
2022-07-26T10:31:48.457Z,18.82
2022-07-26T10:34:36.031Z,19.11
2022-07-26T10:37:21.037Z,18.95
2022-07-26T10:39:48.167Z,19.26
2022-07-26T10:42:15.115Z,19.21
2022-07-26T10:44:45.037Z,19.29
2022-07-26T10:47:16.772Z,19.15
2022-07-26T10:49:57.813Z,19.14
2022-07-26T10:52:27.322Z,19.05
2022-07-26T10:55:04.932Z,19.21
2022-07-26T10:57:36.070Z,19.54
2022-07-26T11:00:10.269Z,19.70
2022-07-26T11:02:37.885Z,19.79
2022-07-26T11:05:16.500Z,19.86
2022-07-26T11:07:55.123Z,19.89
2022-07-26T11:10:43.050Z,19.94
2022-07-26T11:13:12.629Z,19.98
2022-07-26T11:15:44.732Z,19.74
2022-07-26T11:18:25.363Z,19.92
2022-07-26T11:20:54.609Z,19.91
2022-07-26T11:23:31.993Z,19.95
2022-07-26T11:26:19.868Z,19.97
2022-07-26T11:28:51.499Z,19.78
2022-07-26T11:31:20.179Z,19.63
2022-07-26T11:33:50.987Z,19.57
2022-07-26T11:36:19.888Z,19.74
2022-07-26T11:38:54.181Z,19.74
2022-07-26T11:41:34.202Z,20.07
2022-07-26T11:44:04.124Z,19.69
2022-07-26T11:46:37.264Z,20.13
2022-07-26T11:49:06.291Z,19.65
2022-07-26T11:51:33.434Z,20.04
2022-07-26T11:54:03.292Z,20.06
2022-07-26T11:56:31.529Z,20.19
2022-07-26T11:58:58.809Z,20.31
2022-07-26T12:01:26.719Z,20.40
2022-07-26T12:03:54.440Z,20.37
2022-07-26T12:06:26.922Z,20.52
2022-07-26T12:08:58.702Z,20.44
2022-07-26T12:11:37.275Z,20.56
2022-07-26T12:14:04.877Z,20.54
2022-07-26T12:16:40.271Z,20.34
2022-07-26T12:19:09.132Z,20.61
2022-07-26T12:21:46.812Z,20.15
2022-07-26T12:24:37.085Z,20.65
2022-07-26T12:27:07.510Z,20.59
2022-07-26T12:29:36.572Z,20.33
2022-07-26T12:32:12.262Z,20.60
2022-07-26T12:34:40.997Z,20.39
2022-07-26T12:37:13.487Z,20.45
2022-07-26T12:39:41.561Z,20.54
2022-07-26T12:42:33.610Z,20.36
2022-07-26T12:45:02.725Z,20.31
2022-07-26T12:47:30.006Z,20.57
2022-07-26T12:49:57.073Z,20.76
2022-07-26T12:52:24.270Z,20.67
2022-07-26T12:54:53.076Z,20.81
2022-07-26T12:57:20.894Z,20.43
2022-07-26T12:59:48.530Z,20.64
2022-07-26T13:02:18.025Z,20.89
2022-07-26T13:04:48.344Z,20.88
2022-07-26T13:07:16.801Z,20.96
2022-07-26T13:09:45.134Z,20.82
2022-07-26T13:12:12.767Z,20.47
2022-07-26T13:14:40.502Z,20.57
2022-07-26T13:17:08.077Z,20.88
2022-07-26T13:19:35.656Z,20.88
2022-07-26T13:22:03.499Z,20.77
2022-07-26T13:24:32.706Z,20.77
2022-07-26T13:27:00.470Z,20.69
2022-07-26T13:29:27.615Z,20.93
2022-07-26T13:31:56.023Z,21.11
2022-07-26T13:34:23.734Z,21.17
2022-07-26T13:36:51.176Z,21.20
2022-07-26T13:39:18.579Z,20.99
2022-07-26T13:41:48.388Z,21.32
2022-07-26T13:44:16.095Z,21.31
2022-07-26T13:46:43.697Z,21.00
2022-07-26T13:49:10.948Z,21.13
2022-07-26T13:51:57.099Z,20.97
2022-07-26T13:54:34.735Z,21.00
2022-07-26T13:57:03.447Z,21.15
2022-07-26T13:59:30.668Z,20.71
2022-07-26T14:01:57.760Z,20.88
2022-07-26T14:04:25.141Z,20.98
2022-07-26T14:06:52.393Z,20.78
2022-07-26T14:09:19.941Z,21.01
2022-07-26T14:11:47.242Z,20.98
2022-07-26T14:14:14.704Z,21.02
2022-07-26T14:16:42.121Z,20.72
2022-07-26T14:19:09.357Z,20.65
2022-07-26T14:21:47.548Z,20.43
2022-07-26T14:24:25.355Z,20.64
2022-07-26T14:26:55.458Z,20.80
2022-07-26T14:29:25.776Z,20.44
2022-07-26T14:31:53.204Z,20.69
2022-07-26T14:34:20.710Z,20.87
2022-07-26T14:36:47.735Z,20.68
2022-07-26T14:39:14.890Z,20.79
2022-07-26T14:41:41.885Z,20.93
2022-07-26T14:44:09.379Z,20.72
2022-07-26T14:46:36.648Z,20.92
2022-07-26T14:49:03.743Z,21.03
2022-07-26T14:51:30.882Z,21.25
2022-07-26T14:53:57.958Z,21.21
2022-07-26T14:56:24.901Z,21.19
2022-07-26T14:58:52.086Z,20.90
2022-07-26T15:01:19.276Z,21.26
2022-07-26T15:03:46.553Z,20.90
2022-07-26T15:06:13.503Z,21.13
2022-07-26T15:08:40.436Z,21.05
2022-07-26T15:11:07.469Z,21.10
2022-07-26T15:13:35.808Z,20.67
2022-07-26T15:16:03.127Z,21.00
2022-07-26T15:18:30.927Z,20.94
2022-07-26T15:20:58.064Z,20.72
2022-07-26T15:23:25.399Z,20.96
2022-07-26T15:25:52.455Z,20.97
2022-07-26T15:28:19.687Z,20.74
2022-07-26T15:30:46.675Z,20.67
2022-07-26T15:33:14.870Z,20.85
2022-07-26T15:35:41.970Z,20.71
2022-07-26T15:38:09.354Z,20.69
2022-07-26T15:40:36.374Z,20.50
2022-07-26T15:43:03.533Z,20.33
2022-07-26T15:45:32.750Z,20.35
2022-07-26T15:48:11.435Z,20.41
2022-07-26T15:50:43.370Z,20.53
2022-07-26T15:53:10.318Z,20.52
2022-07-26T15:55:37.262Z,20.49
2022-07-26T15:58:04.372Z,20.24
2022-07-26T16:00:31.316Z,20.28
2022-07-26T16:02:58.281Z,20.09
2022-07-26T16:05:25.419Z,20.35
2022-07-26T16:07:52.362Z,20.39
2022-07-26T16:10:21.763Z,20.31
2022-07-26T16:12:48.942Z,20.10
2022-07-26T16:15:16.360Z,20.42
2022-07-26T16:17:43.369Z,19.98
2022-07-26T16:20:10.808Z,20.13
2022-07-26T16:22:41.218Z,20.10
2022-07-26T16:25:08.940Z,20.13
2022-07-26T16:27:36.156Z,20.04
2022-07-26T16:30:03.709Z,20.37
2022-07-26T16:32:30.666Z,20.29
2022-07-26T16:34:57.714Z,20.34
2022-07-26T16:37:24.809Z,20.37
2022-07-26T16:39:51.798Z,20.16
2022-07-26T16:42:18.883Z,20.19
2022-07-26T16:44:46.301Z,19.88
2022-07-26T16:47:13.382Z,20.05
2022-07-26T16:49:40.333Z,19.88
2022-07-26T16:52:07.403Z,20.07
2022-07-26T16:54:34.421Z,19.94
2022-07-26T16:57:01.598Z,19.91
2022-07-26T16:59:28.927Z,19.85
2022-07-26T17:01:56.112Z,19.83
2022-07-26T17:04:26.585Z,20.12
2022-07-26T17:07:22.204Z,19.95
2022-07-26T17:09:40.917Z,19.67
2022-07-26T17:12:08.249Z,19.72
2022-07-26T17:14:35.189Z,20.11
2022-07-26T17:17:02.281Z,19.95
2022-07-26T17:19:29.312Z,19.82
2022-07-26T17:21:56.330Z,19.69
2022-07-26T17:24:23.912Z,19.87
2022-07-26T17:26:51.236Z,19.75
2022-07-26T17:29:18.273Z,19.64
2022-07-26T17:31:45.539Z,19.68
2022-07-26T17:34:13.000Z,19.69
2022-07-26T17:36:39.939Z,19.69
2022-07-26T17:39:12.570Z,19.44
2022-07-26T17:41:47.519Z,19.65
2022-07-26T17:44:15.058Z,19.53
2022-07-26T17:46:42.597Z,19.33
2022-07-26T17:49:10.266Z,19.35
2022-07-26T17:51:38.309Z,19.26
2022-07-26T17:54:05.420Z,19.41
2022-07-26T17:56:32.513Z,19.21
2022-07-26T17:58:59.830Z,19.55
2022-07-26T18:01:26.808Z,19.43
2022-07-26T18:03:53.958Z,19.58
2022-07-26T18:06:21.257Z,19.56
2022-07-26T18:08:48.286Z,19.54
2022-07-26T18:11:15.508Z,19.35
2022-07-26T18:13:43.140Z,19.31
2022-07-26T18:16:10.098Z,18.83
2022-07-26T18:18:37.204Z,19.18
2022-07-26T18:21:04.386Z,19.31
2022-07-26T18:23:31.348Z,19.15
2022-07-26T18:25:59.199Z,19.29
2022-07-26T18:28:26.258Z,19.30
2022-07-26T18:30:53.268Z,19.05
2022-07-26T18:33:20.806Z,18.98
2022-07-26T18:35:47.866Z,18.91
2022-07-26T18:38:14.950Z,19.12
2022-07-26T18:40:42.011Z,19.01
2022-07-26T18:43:09.619Z,18.77
2022-07-26T18:45:36.555Z,18.93
2022-07-26T18:48:03.622Z,18.78
2022-07-26T18:50:31.072Z,18.92
2022-07-26T18:52:59.419Z,18.91
2022-07-26T18:55:26.631Z,19.01
2022-07-26T18:57:53.692Z,19.14
2022-07-26T19:00:21.453Z,19.14
2022-07-26T19:02:48.672Z,18.96
2022-07-26T19:05:16.746Z,19.18
2022-07-26T19:07:44.228Z,18.94
2022-07-26T19:10:11.905Z,18.90
2022-07-26T19:12:39.285Z,18.82
2022-07-26T19:15:07.355Z,18.97
2022-07-26T19:17:35.631Z,18.57
2022-07-26T19:20:02.765Z,18.99
2022-07-26T19:22:30.496Z,18.63
2022-07-26T19:24:57.616Z,18.58
2022-07-26T19:27:24.875Z,18.78
2022-07-26T19:29:51.825Z,18.49
2022-07-26T19:32:19.311Z,18.12
2022-07-26T19:34:46.528Z,18.02
2022-07-26T19:37:19.865Z,18.15
2022-07-26T19:39:48.929Z,18.39
2022-07-26T19:42:17.070Z,18.37
2022-07-26T19:44:44.022Z,18.02
2022-07-26T19:47:11.077Z,18.24
2022-07-26T19:49:38.023Z,18.25
2022-07-26T19:52:09.701Z,18.41
2022-07-26T19:54:38.562Z,18.41
2022-07-26T19:57:05.522Z,18.42
2022-07-26T19:59:32.538Z,18.06
2022-07-26T20:01:59.770Z,18.26
2022-07-26T20:04:26.879Z,18.13
2022-07-26T20:06:54.997Z,18.34
2022-07-26T20:09:22.210Z,18.40
2022-07-26T20:11:51.102Z,18.28
2022-07-26T20:14:19.690Z,18.27
2022-07-26T20:16:47.251Z,18.46
2022-07-26T20:19:14.752Z,18.16
2022-07-26T20:21:41.789Z,18.37
2022-07-26T20:24:09.238Z,18.18
2022-07-26T20:26:37.571Z,17.92
2022-07-26T20:29:05.789Z,18.32
2022-07-26T20:31:33.261Z,18.28
2022-07-26T20:34:00.349Z,18.36
2022-07-26T20:36:27.291Z,18.53
2022-07-26T20:38:54.456Z,17.47
2022-07-26T20:41:21.971Z,18.00
2022-07-26T20:43:48.929Z,18.32
2022-07-26T20:46:17.062Z,18.49
2022-07-26T20:48:44.113Z,18.55
2022-07-26T20:51:13.668Z,18.47
2022-07-26T20:53:41.797Z,18.55
2022-07-26T20:56:10.403Z,18.41
2022-07-26T20:58:37.704Z,18.57
2022-07-26T21:01:06.916Z,18.21
2022-07-26T21:03:34.139Z,18.33
2022-07-26T21:06:01.142Z,18.29
2022-07-26T21:08:28.276Z,18.43
2022-07-26T21:10:58.860Z,17.66
2022-07-26T21:13:25.888Z,18.02
2022-07-26T21:15:54.542Z,17.89
2022-07-26T21:18:21.722Z,18.33
2022-07-26T21:20:48.723Z,18.03
2022-07-26T21:23:18.492Z,18.29
2022-07-26T21:25:46.347Z,18.08
2022-07-26T21:28:13.296Z,18.14
2022-07-26T21:30:40.991Z,18.36
2022-07-26T21:33:08.166Z,18.11
2022-07-26T21:35:35.115Z,17.71
2022-07-26T21:38:02.168Z,18.10
2022-07-26T21:40:29.100Z,18.00
2022-07-26T21:42:56.222Z,17.63
2022-07-26T21:45:23.333Z,17.66
2022-07-26T21:47:51.310Z,17.30
2022-07-26T21:50:18.311Z,17.49
2022-07-26T21:52:45.783Z,17.33
2022-07-26T21:55:17.738Z,17.55
2022-07-26T21:57:45.165Z,17.26
2022-07-26T22:00:14.845Z,17.41
2022-07-26T22:02:41.965Z,17.29
2022-07-26T22:05:29.445Z,17.44
2022-07-26T22:07:56.436Z,17.19
2022-07-26T22:10:23.650Z,17.13
2022-07-26T22:12:51.305Z,17.27
2022-07-26T22:15:18.321Z,17.42
2022-07-26T22:17:48.494Z,17.52
2022-07-26T22:20:16.455Z,17.52
2022-07-26T22:22:43.394Z,17.38
2022-07-26T22:25:10.311Z,17.46
2022-07-26T22:27:37.412Z,17.57
2022-07-26T22:30:05.593Z,17.36
2022-07-26T22:32:32.548Z,17.57
2022-07-26T22:34:59.737Z,17.60
2022-07-26T22:37:26.808Z,17.61
2022-07-26T22:39:53.782Z,17.42
2022-07-26T22:42:21.271Z,17.61
2022-07-26T22:44:48.205Z,17.58
2022-07-26T22:47:15.215Z,17.67
2022-07-26T22:49:42.292Z,17.61
2022-07-26T22:52:09.431Z,17.70
2022-07-26T22:54:36.541Z,17.51
2022-07-26T22:57:03.512Z,17.64
2022-07-26T22:59:30.538Z,17.38
2022-07-26T23:01:57.622Z,17.74
2022-07-26T23:04:24.613Z,17.61
2022-07-26T23:06:52.181Z,17.77
2022-07-26T23:09:22.005Z,17.77
2022-07-26T23:11:48.954Z,17.43
2022-07-26T23:14:18.349Z,17.49
2022-07-26T23:16:48.451Z,17.50
2022-07-26T23:19:18.172Z,17.43
2022-07-26T23:21:45.178Z,17.41
2022-07-26T23:24:12.217Z,17.29
2022-07-26T23:26:39.342Z,17.17
2022-07-26T23:29:06.989Z,17.30
2022-07-26T23:31:34.222Z,17.44
2022-07-26T23:34:01.283Z,17.55
2022-07-26T23:36:28.549Z,17.19
2022-07-26T23:38:56.709Z,17.53
2022-07-26T23:41:23.979Z,17.59
2022-07-26T23:43:54.500Z,17.16
2022-07-26T23:46:22.249Z,17.53
2022-07-26T23:48:51.779Z,17.51
2022-07-26T23:51:21.861Z,17.28
2022-07-26T23:53:48.984Z,17.50
2022-07-26T23:56:16.637Z,17.61
2022-07-26T23:58:43.751Z,17.05
